Terminal Aerodrome Forecast
Issued by NWS

Home | Current Version | Previous Version | Text Only | Print | Product List | Glossary On
Versions: 1 2 3 4 5 6 7 8 9 10 11 12 13 14 15 16 17 18 19 20 21 22 23 24 25 26
000
FTUS45 KGJT 052351
TAFEGE
TAF
KEGE 052351Z 0600/0624 26009KT P6SM -RA BKN050 OVC080
      TEMPO 0600/0602 4SM -TSRA BKN025 OVC050CB
     FM060200 VRB03KT P6SM VCSH SCT050 BKN080
      TEMPO 0602/0606 -RA SCT030 BKN050
     FM061100 10004KT 5SM -RA BR OVC020
     FM061500 VRB03KT P6SM -RA BKN030
     FM062000 25010KT P6SM -TSRA BKN050CB
      AMD LTD TO CLD VIS AND WIND 0602/0613=

USA.gov is the U.S. government's official web portal to all federal, state and local government web resources and services.